Time;durP1;ratioP1;P1;durP2;ratioP2;P2;SDS_P1;SDS_P2;PMS_P1;PMS_P2;Temp;Humidity;BMP_temperature;BMP_pressure;BME280_temperature;BME280_humidity;BME280_pressure;Samples;Min_cycle;Max_cycle;Signal;HPM_P1;HPM_P2
2024/04/16 00:01:41;;;;;;;7.17;4.20;;;5.40;90.10;;;;;;5527485;26;20226;-85
2024/04/16 00:04:06;;;;;;;6.70;3.80;;;5.50;90.30;;;;;;5527338;26;20234;-85
2024/04/16 00:06:32;;;;;;;5.07;4.60;;;5.40;90.20;;;;;;5527416;26;20848;-85
2024/04/16 00:08:57;;;;;;;8.33;4.30;;;5.40;90.20;;;;;;5527501;26;20213;-85
2024/04/16 00:11:23;;;;;;;10.33;4.33;;;5.40;90.40;;;;;;5527639;26;20740;-87
2024/04/16 00:13:49;;;;;;;5.13;4.30;;;5.40;90.30;;;;;;5527032;26;20717;-85
2024/04/16 00:16:15;;;;;;;7.40;3.97;;;5.40;90.30;;;;;;5494306;26;20254;-85
2024/04/16 00:18:40;;;;;;;5.53;5.03;;;5.50;90.40;;;;;;5527502;26;20210;-84
2024/04/16 00:21:06;;;;;;;6.60;4.20;;;5.50;90.30;;;;;;5527656;26;20256;-84
2024/04/16 00:23:31;;;;;;;4.90;4.47;;;5.40;90.00;;;;;;5527409;26;20253;-85
2024/04/16 00:25:57;;;;;;;4.20;3.90;;;5.40;90.50;;;;;;5494329;26;20248;-84
2024/04/16 00:28:23;;;;;;;5.07;4.57;;;5.40;90.60;;;;;;5526971;26;20218;-84
2024/04/16 00:30:48;;;;;;;8.90;5.00;;;5.30;90.90;;;;;;5494366;26;20569;-86
2024/04/16 00:33:14;;;;;;;4.90;4.50;;;5.40;90.90;;;;;;5527384;26;20225;-84
2024/04/16 00:35:42;;;;;;;8.30;4.90;;;5.30;90.90;;;;;;5526638;26;20255;-85
2024/04/16 00:38:11;;;;;;;4.90;4.20;;;5.30;91.10;;;;;;5527061;26;20213;-85
2024/04/16 00:40:37;;;;;;;8.23;4.93;;;5.30;91.00;;;;;;5527024;26;20717;-85
2024/04/16 00:43:19;;;;;;;6.47;4.13;;;5.30;91.20;;;;;;5526630;26;20276;-85
2024/04/16 00:45:53;;;;;;;8.50;7.90;;;5.30;90.40;;;;;;5526696;26;20626;-85
2024/04/16 00:48:28;;;;;;;10.93;10.03;;;5.40;90.50;;;;;;5494272;26;20244;-84
2024/04/16 00:50:56;;;;;;;9.87;8.87;;;5.30;90.30;;;;;;5528480;26;20171;-85
2024/04/16 00:53:23;;;;;;;10.00;8.93;;;5.30;90.50;;;;;;5531426;26;20255;-85
2024/04/16 00:55:50;;;;;;;8.60;8.00;;;5.30;90.60;;;;;;5498805;26;20236;-85
2024/04/16 00:58:17;;;;;;;8.57;8.07;;;5.20;90.70;;;;;;5498261;26;20217;-85
2024/04/16 01:00:43;;;;;;;9.03;8.33;;;5.10;90.90;;;;;;5532175;26;20221;-85
2024/04/16 01:03:09;;;;;;;10.07;9.10;;;5.20;90.90;;;;;;5530997;26;20225;-87
2024/04/16 01:05:35;;;;;;;9.77;8.97;;;5.10;90.90;;;;;;5532049;26;20213;-85
2024/04/16 01:08:01;;;;;;;9.17;8.33;;;5.00;91.00;;;;;;5530799;26;20213;-86
2024/04/16 01:10:28;;;;;;;8.80;8.20;;;5.10;91.00;;;;;;5531455;26;20321;-85
2024/04/16 01:12:53;;;;;;;9.10;8.37;;;5.20;90.90;;;;;;5530966;26;20212;-85
2024/04/16 01:15:19;;;;;;;8.97;8.33;;;5.30;91.00;;;;;;5531176;26;20298;-87
2024/04/16 01:17:44;;;;;;;9.73;8.93;;;5.30;90.80;;;;;;5530760;26;20321;-85
2024/04/16 01:20:11;;;;;;;8.10;7.40;;;5.30;90.60;;;;;;5531391;26;20349;-85
2024/04/16 01:22:36;;;;;;;9.03;8.33;;;5.30;90.70;;;;;;5531176;26;20313;-88
2024/04/16 01:25:02;;;;;;;9.57;8.77;;;5.30;90.90;;;;;;5498295;26;20712;-88
2024/04/16 01:27:27;;;;;;;12.17;9.13;;;5.40;90.90;;;;;;5531215;26;20290;-86
2024/04/16 01:29:53;;;;;;;9.20;8.50;;;5.30;91.10;;;;;;5498159;26;20218;-86
2024/04/16 01:32:18;;;;;;;9.50;8.67;;;5.30;91.00;;;;;;5531139;26;20213;-87
2024/04/16 01:34:44;;;;;;;9.00;8.40;;;5.30;91.00;;;;;;5530691;26;20580;-84
2024/04/16 01:37:09;;;;;;;9.43;8.53;;;5.20;90.90;;;;;;5531169;26;20256;-86
2024/04/16 01:39:35;;;;;;;9.77;7.60;;;5.20;91.00;;;;;;5497551;26;20256;-84
2024/04/16 01:42:00;;;;;;;9.60;8.60;;;5.20;91.10;;;;;;5531708;26;20179;-86
2024/04/16 01:44:26;;;;;;;8.67;8.00;;;5.20;91.10;;;;;;5530549;26;20263;-87
2024/04/16 01:46:52;;;;;;;8.80;7.53;;;5.10;91.10;;;;;;5531738;26;20245;-85
2024/04/16 01:49:17;;;;;;;8.90;8.10;;;5.20;91.20;;;;;;5530565;26;20220;-87
2024/04/16 01:51:43;;;;;;;9.43;8.47;;;5.30;91.00;;;;;;5531876;26;20273;-87
2024/04/16 01:54:08;;;;;;;8.73;7.90;;;5.30;91.00;;;;;;5530762;26;20577;-85
2024/04/16 01:56:34;;;;;;;11.67;8.53;;;5.40;91.10;;;;;;5530575;26;20210;-87
2024/04/16 01:58:59;;;;;;;9.77;8.77;;;5.40;90.90;;;;;;5531187;26;20743;-85
2024/04/16 02:01:25;;;;;;;9.17;8.47;;;5.40;91.00;;;;;;5530461;26;20260;-86
2024/04/16 02:03:51;;;;;;;7.73;7.10;;;5.40;91.20;;;;;;5530325;26;20225;-85
2024/04/16 02:06:16;;;;;;;6.87;4.70;;;5.30;91.20;;;;;;5497640;26;20244;-86
2024/04/16 02:08:42;;;;;;;4.77;4.23;;;5.30;91.30;;;;;;5498184;26;20745;-85
2024/04/16 02:11:07;;;;;;;6.60;5.20;;;5.30;91.10;;;;;;5497866;26;20218;-87
2024/04/16 02:13:33;;;;;;;6.10;5.20;;;5.30;91.20;;;;;;5531408;26;20232;-85
2024/04/16 02:15:58;;;;;;;10.50;5.23;;;5.20;91.50;;;;;;5530599;26;20213;-87
2024/04/16 02:18:24;;;;;;;7.57;4.90;;;5.20;91.60;;;;;;5531634;26;20213;-86
2024/04/16 02:20:49;;;;;;;6.00;5.07;;;5.20;91.80;;;;;;5530056;26;20221;-86
2024/04/16 02:23:15;;;;;;;8.10;5.27;;;5.20;91.80;;;;;;5530806;26;20229;-85
2024/04/16 02:25:53;;;;;;;9.30;5.37;;;5.30;91.60;;;;;;5497396;26;20214;-86
2024/04/16 02:28:19;;;;;;;7.90;5.33;;;5.40;91.50;;;;;;5497563;26;20562;-88
2024/04/16 02:30:44;;;;;;;6.53;5.77;;;5.40;91.30;;;;;;5530348;26;20291;-86
2024/04/16 02:33:11;;;;;;;8.33;5.10;;;5.40;91.30;;;;;;5530538;26;20229;-88
2024/04/16 02:35:37;;;;;;;6.43;5.50;;;5.40;91.30;;;;;;5530255;26;20210;-87
2024/04/16 02:38:02;;;;;;;9.13;5.23;;;5.40;91.30;;;;;;5530329;26;20210;-87
2024/04/16 02:40:28;;;;;;;6.60;5.73;;;5.40;91.40;;;;;;5530969;26;20554;-86
2024/04/16 02:42:53;;;;;;;8.00;5.30;;;5.40;91.30;;;;;;5530808;26;20217;-87
2024/04/16 02:45:20;;;;;;;9.90;5.20;;;5.40;91.40;;;;;;5497669;26;20218;-86
2024/04/16 02:47:45;;;;;;;7.70;5.80;;;5.30;91.60;;;;;;5530092;26;20260;-85
2024/04/16 02:50:11;;;;;;;6.33;4.97;;;5.30;91.50;;;;;;5497644;26;20221;-86
2024/04/16 02:52:36;;;;;;;8.50;5.57;;;5.30;91.40;;;;;;5497472;26;20221;-87
2024/04/16 02:55:03;;;;;;;9.13;5.03;;;5.40;91.40;;;;;;5530536;26;20226;-85
2024/04/16 02:57:28;;;;;;;9.33;4.57;;;5.40;91.40;;;;;;5530115;26;20240;-85
2024/04/16 02:59:54;;;;;;;6.93;4.73;;;5.40;91.40;;;;;;5530323;26;20369;-88
2024/04/16 03:02:19;;;;;;;6.03;5.53;;;5.40;91.30;;;;;;5496997;26;20252;-85
2024/04/16 03:04:48;;;;;;;6.47;5.83;;;5.40;91.30;;;;;;5530345;26;20233;-86
2024/04/16 03:07:14;;;;;;;5.37;4.40;;;5.40;91.00;;;;;;5529982;26;20639;-86
2024/04/16 03:09:39;;;;;;;5.27;4.77;;;5.40;91.30;;;;;;5530391;26;20207;-87
2024/04/16 03:12:05;;;;;;;5.27;4.77;;;5.50;91.20;;;;;;5530154;26;20559;-87
2024/04/16 03:14:30;;;;;;;9.97;8.97;;;5.60;91.00;;;;;;5528656;26;20222;-87
2024/04/16 03:16:56;;;;;;;9.77;8.77;;;5.60;91.00;;;;;;5529952;26;20793;-87
2024/04/16 03:19:21;;;;;;;10.03;8.97;;;5.60;91.00;;;;;;5496981;26;20309;-88
2024/04/16 03:21:47;;;;;;;12.83;11.57;;;5.60;91.10;;;;;;5530449;26;20256;-86
2024/04/16 03:24:13;;;;;;;10.60;9.77;;;5.70;91.20;;;;;;5496793;26;20237;-85
2024/04/16 03:26:38;;;;;;;10.30;9.50;;;5.70;90.90;;;;;;5497752;26;20233;-86
2024/04/16 03:29:04;;;;;;;10.90;9.77;;;5.70;91.10;;;;;;5529820;26;20574;-86
2024/04/16 03:31:29;;;;;;;10.03;9.30;;;5.70;91.10;;;;;;5529993;26;20313;-87
2024/04/16 03:33:55;;;;;;;9.90;9.10;;;5.70;90.90;;;;;;5529446;26;20642;-87
2024/04/16 03:36:20;;;;;;;9.30;8.50;;;5.80;90.70;;;;;;5530542;26;20289;-88
2024/04/16 03:38:46;;;;;;;10.17;9.27;;;5.80;90.40;;;;;;5529819;26;20222;-86
2024/04/16 03:41:11;;;;;;;10.47;9.53;;;5.80;90.40;;;;;;5529729;26;20233;-88
2024/04/16 03:43:37;;;;;;;10.37;9.27;;;5.70;90.00;;;;;;5529215;26;20230;-87
2024/04/16 03:46:03;;;;;;;9.67;8.97;;;5.80;89.60;;;;;;5496931;26;20225;-87
2024/04/16 03:48:29;;;;;;;9.63;8.83;;;5.80;89.40;;;;;;5529648;26;20214;-86
2024/04/16 03:50:54;;;;;;;10.20;9.30;;;5.80;89.70;;;;;;5529723;26;20558;-88
2024/04/16 03:53:20;;;;;;;9.50;8.47;;;5.80;89.50;;;;;;5530074;26;20230;-85
2024/04/16 03:55:46;;;;;;;10.70;9.97;;;5.80;89.00;;;;;;5496919;26;20248;-85
2024/04/16 03:58:11;;;;;;;10.77;9.67;;;5.80;89.10;;;;;;5529916;26;20214;-87
2024/04/16 04:03:21;;;;;;;11.03;10.33;;;5.80;89.30;;;;;;5531226;26;20249;-85
2024/04/16 04:05:47;;;;;;;10.40;9.50;;;5.80;89.10;;;;;;5529543;26;20210;-88
2024/04/16 04:08:13;;;;;;;8.70;8.10;;;5.80;89.50;;;;;;5530091;26;20694;-87
2024/04/16 04:10:39;;;;;;;14.90;9.90;;;5.80;89.50;;;;;;5529283;26;20218;-86
2024/04/16 04:13:04;;;;;;;10.30;9.70;;;5.80;89.70;;;;;;5530194;26;20226;-87
2024/04/16 04:15:31;;;;;;;10.70;9.67;;;5.70;89.60;;;;;;5529220;26;20631;-86
2024/04/16 04:17:56;;;;;;;9.90;9.07;;;5.70;89.60;;;;;;5529900;26;20213;-87
2024/04/16 04:20:22;;;;;;;9.50;8.67;;;5.70;89.60;;;;;;5529101;26;20264;-85
2024/04/16 04:22:47;;;;;;;9.53;8.87;;;5.80;89.80;;;;;;5529347;26;20314;-87
2024/04/16 04:25:13;;;;;;;8.90;8.03;;;5.80;89.40;;;;;;5496241;26;20230;-85
2024/04/16 04:27:41;;;;;;;8.23;7.63;;;5.70;89.40;;;;;;5529631;26;20682;-85
2024/04/16 04:30:07;;;;;;;10.93;10.03;;;5.70;89.30;;;;;;5529739;26;20222;-85
2024/04/16 04:32:33;;;;;;;5.43;4.97;;;5.80;89.10;;;;;;5529499;26;20693;-85
2024/04/16 04:34:59;;;;;;;5.07;4.73;;;5.70;88.70;;;;;;5528660;26;20252;-85
2024/04/16 04:37:25;;;;;;;4.90;4.60;;;5.80;88.50;;;;;;5495982;26;20229;-88
2024/04/16 04:39:51;;;;;;;7.63;4.90;;;5.70;88.60;;;;;;5529083;26;20267;-86
2024/04/16 04:42:16;;;;;;;5.40;4.93;;;5.80;88.60;;;;;;5528973;26;20210;-87
2024/04/16 04:44:42;;;;;;;8.60;4.83;;;5.80;88.50;;;;;;5529762;26;20253;-86
2024/04/16 04:47:07;;;;;;;5.67;5.03;;;5.80;88.40;;;;;;5496018;26;20222;-84
2024/04/16 04:49:33;;;;;;;5.13;4.80;;;5.70;87.90;;;;;;5529308;26;20252;-86
2024/04/16 04:51:58;;;;;;;5.23;4.83;;;5.80;87.70;;;;;;5496397;26;20648;-88
2024/04/16 04:54:24;;;;;;;4.50;4.20;;;5.80;87.90;;;;;;5529081;26;20234;-86
2024/04/16 04:56:50;;;;;;;5.30;4.90;;;5.80;88.00;;;;;;5495921;26;20701;-87
2024/04/16 04:59:15;;;;;;;5.57;4.93;;;5.80;87.90;;;;;;5529266;26;20264;-86
2024/04/16 05:01:41;;;;;;;5.13;4.83;;;5.80;87.80;;;;;;5529161;26;20561;-88
2024/04/16 05:04:06;;;;;;;5.93;5.43;;;5.80;87.90;;;;;;5528483;26;20222;-85
2024/04/16 05:06:33;;;;;;;5.47;5.03;;;5.80;87.80;;;;;;5529277;26;20549;-86
2024/04/16 05:08:59;;;;;;;5.30;4.90;;;5.80;88.00;;;;;;5528987;26;20256;-88
2024/04/16 05:11:25;;;;;;;6.30;4.83;;;5.80;88.50;;;;;;5529195;26;20210;-88
2024/04/16 05:13:50;;;;;;;4.43;4.13;;;5.80;88.40;;;;;;5529076;26;20314;-87
2024/04/16 05:16:16;;;;;;;5.17;4.27;;;5.80;88.50;;;;;;5496214;26;20309;-86
2024/04/16 05:18:42;;;;;;;5.13;4.43;;;5.80;88.80;;;;;;5528824;26;20214;-87
2024/04/16 05:21:07;;;;;;;5.57;4.23;;;5.80;88.90;;;;;;5528663;26;20264;-85
2024/04/16 05:23:35;;;;;;;10.37;4.50;;;5.80;89.10;;;;;;5496128;26;20234;-86
2024/04/16 05:26:02;;;;;;;5.40;4.73;;;5.90;89.10;;;;;;5528672;26;20218;-87
2024/04/16 05:28:34;;;;;;;6.13;4.80;;;5.80;88.70;;;;;;5496303;26;20773;-87
2024/04/16 05:31:00;;;;;;;6.00;4.80;;;5.90;88.90;;;;;;5528641;26;20245;-87
2024/04/16 05:33:26;;;;;;;5.17;4.57;;;5.90;88.90;;;;;;5529367;26;20270;-87
2024/04/16 05:35:52;;;;;;;5.70;5.17;;;5.90;89.00;;;;;;5528572;26;20786;-87
2024/04/16 05:38:18;;;;;;;5.83;5.30;;;5.80;88.60;;;;;;5530595;26;20222;-87
2024/04/16 05:40:43;;;;;;;5.20;4.70;;;5.90;89.00;;;;;;5499639;26;20281;-85
2024/04/16 05:43:09;;;;;;;5.13;4.77;;;5.90;89.00;;;;;;5533255;26;20218;-87
2024/04/16 05:45:35;;;;;;;9.53;8.53;;;6.00;88.90;;;;;;5532786;26;20658;-88
2024/04/16 05:48:00;;;;;;;9.87;8.87;;;5.90;89.10;;;;;;5532824;26;20250;-88
2024/04/16 05:50:26;;;;;;;8.93;8.43;;;5.90;89.00;;;;;;5532522;26;20211;-85
2024/04/16 05:52:51;;;;;;;8.60;8.10;;;5.90;88.90;;;;;;5499513;26;20245;-87
2024/04/16 05:55:17;;;;;;;11.13;10.23;;;5.90;88.90;;;;;;5532562;26;20648;-87
2024/04/16 05:57:42;;;;;;;9.70;8.67;;;5.90;88.60;;;;;;5531680;26;20214;-86
2024/04/16 06:00:08;;;;;;;10.83;10.03;;;6.00;88.70;;;;;;5499388;26;20214;-85
2024/04/16 06:02:34;;;;;;;9.00;8.50;;;6.00;88.70;;;;;;5532040;26;20218;-87
2024/04/16 06:04:59;;;;;;;10.03;9.37;;;6.00;88.60;;;;;;5531949;26;20714;-87
2024/04/16 06:07:25;;;;;;;7.80;7.20;;;6.00;88.90;;;;;;5531498;26;20264;-87
2024/04/16 06:09:50;;;;;;;9.27;8.57;;;6.00;88.90;;;;;;5531234;26;20217;-87
2024/04/16 06:12:16;;;;;;;9.80;8.70;;;6.10;88.90;;;;;;5498388;26;20697;-85
2024/04/16 06:14:41;;;;;;;9.63;8.77;;;6.10;88.70;;;;;;5531167;26;20245;-87
2024/04/16 06:17:07;;;;;;;8.70;8.00;;;6.20;88.70;;;;;;5531827;26;20209;-86
2024/04/16 06:19:33;;;;;;;9.63;8.93;;;6.10;88.10;;;;;;5532333;26;20313;-86
2024/04/16 06:21:58;;;;;;;9.53;8.90;;;6.30;88.40;;;;;;5531927;26;20260;-85
2024/04/16 06:24:24;;;;;;;10.07;9.27;;;6.20;88.30;;;;;;5531981;26;20668;-87
2024/04/16 06:26:49;;;;;;;9.63;9.03;;;6.30;88.50;;;;;;5532139;26;20256;-86
2024/04/16 06:29:15;;;;;;;10.50;9.77;;;6.30;88.40;;;;;;5532475;26;20324;-87
2024/04/16 06:31:40;;;;;;;10.73;9.73;;;6.30;88.30;;;;;;5532383;26;20210;-87
2024/04/16 06:34:06;;;;;;;10.07;9.47;;;6.30;88.20;;;;;;5531860;26;20258;-85
2024/04/16 06:36:31;;;;;;;10.87;10.07;;;6.40;88.30;;;;;;5532656;26;20286;-86
2024/04/16 06:38:57;;;;;;;10.37;9.57;;;6.40;88.20;;;;;;5498755;26;20226;-86
2024/04/16 06:41:22;;;;;;;11.80;11.00;;;6.40;88.30;;;;;;5531960;26;20260;-85
2024/04/16 06:43:48;;;;;;;10.60;9.73;;;6.50;88.30;;;;;;5531805;26;20222;-87
2024/04/16 06:46:14;;;;;;;11.57;10.40;;;6.40;88.30;;;;;;5531872;26;20244;-87
2024/04/16 06:48:40;;;;;;;11.67;10.67;;;6.40;88.60;;;;;;5531834;26;20636;-86
2024/04/16 06:51:05;;;;;;;11.50;10.70;;;6.30;88.20;;;;;;5499135;26;20222;-86
2024/04/16 06:53:31;;;;;;;12.20;11.27;;;6.40;88.20;;;;;;5531686;26;20237;-87
2024/04/16 06:56:06;;;;;;;12.83;11.67;;;6.40;88.00;;;;;;5532104;26;20257;-86
2024/04/16 06:58:32;;;;;;;11.00;10.27;;;6.40;88.00;;;;;;5499172;26;20318;-87
2024/04/16 07:00:58;;;;;;;12.33;11.03;;;6.50;88.30;;;;;;5531481;26;20256;-85
2024/04/16 07:03:24;;;;;;;12.43;11.27;;;6.50;88.50;;;;;;5532594;26;20576;-86
2024/04/16 07:05:50;;;;;;;12.33;11.43;;;6.50;88.30;;;;;;5532203;26;20561;-87
2024/04/16 07:08:17;;;;;;;11.77;10.90;;;6.50;88.00;;;;;;5531534;26;20595;-86
2024/04/16 07:10:42;;;;;;;10.90;9.97;;;6.50;88.10;;;;;;5498867;26;20229;-88
2024/04/16 07:13:08;;;;;;;12.47;11.07;;;6.50;88.00;;;;;;5498902;26;20291;-87
2024/04/16 07:15:33;;;;;;;10.83;10.13;;;6.60;88.00;;;;;;5531492;26;20211;-86
2024/04/16 07:17:59;;;;;;;10.17;9.47;;;6.50;87.80;;;;;;5531027;26;20341;-87
2024/04/16 07:20:26;;;;;;;10.90;10.07;;;6.40;87.80;;;;;;5531475;26;20206;-87
2024/04/16 07:22:51;;;;;;;10.93;10.13;;;6.40;87.90;;;;;;5530843;26;20266;-87
2024/04/16 07:25:17;;;;;;;7.30;6.60;;;6.40;88.00;;;;;;5531097;26;20248;-87
2024/04/16 07:27:43;;;;;;;7.13;6.27;;;6.40;87.90;;;;;;5498513;26;20547;-85
2024/04/16 07:30:10;;;;;;;8.53;6.07;;;6.30;88.30;;;;;;5531419;26;20260;-87
2024/04/16 07:32:35;;;;;;;6.70;6.10;;;6.50;88.40;;;;;;5498421;26;20218;-86
2024/04/16 07:35:01;;;;;;;12.83;6.30;;;6.40;88.20;;;;;;5531588;26;20222;-87
2024/04/16 07:37:27;;;;;;;8.03;6.90;;;6.50;88.10;;;;;;5498646;26;20222;-86
2024/04/16 07:39:52;;;;;;;6.80;6.30;;;6.60;87.80;;;;;;5498814;26;20588;-87
2024/04/16 07:42:18;;;;;;;7.53;6.77;;;6.70;88.10;;;;;;5499093;26;20713;-86
2024/04/16 07:44:43;;;;;;;9.50;6.87;;;6.70;87.80;;;;;;5531638;26;20234;-85
2024/04/16 07:47:10;;;;;;;9.80;6.97;;;6.80;88.00;;;;;;5499674;26;20260;-86
2024/04/16 07:49:35;;;;;;;7.50;6.83;;;6.70;87.40;;;;;;5530710;26;20210;-87
2024/04/16 07:52:01;;;;;;;6.83;6.17;;;6.70;87.50;;;;;;5530390;26;20222;-85
2024/04/16 07:54:27;;;;;;;7.57;6.43;;;6.80;87.60;;;;;;5529927;26;20790;-85
2024/04/16 07:56:53;;;;;;;8.03;7.00;;;6.80;87.30;;;;;;5497949;26;20282;-87
2024/04/16 07:59:22;;;;;;;10.40;7.40;;;7.00;87.70;;;;;;5531501;26;20566;-87
2024/04/16 08:01:47;;;;;;;8.50;7.70;;;6.90;87.00;;;;;;5530585;26;20591;-89
2024/04/16 08:04:13;;;;;;;9.73;7.10;;;6.80;87.20;;;;;;5532431;26;20225;-88
2024/04/16 08:06:38;;;;;;;9.13;7.97;;;6.80;87.30;;;;;;5532067;26;20321;-87
2024/04/16 08:09:04;;;;;;;9.60;8.37;;;6.70;87.30;;;;;;5499419;26;20585;-88
2024/04/16 08:11:29;;;;;;;7.80;7.17;;;6.90;87.40;;;;;;5531592;26;20218;-87
2024/04/16 08:13:55;;;;;;;7.97;6.87;;;7.00;87.20;;;;;;5499170;26;20270;-87
2024/04/16 08:16:20;;;;;;;7.93;7.20;;;7.10;87.30;;;;;;5531975;26;20214;-87
2024/04/16 08:18:46;;;;;;;9.33;6.67;;;7.00;87.00;;;;;;5531956;26;20694;-87
2024/04/16 08:21:12;;;;;;;7.87;7.17;;;7.10;87.10;;;;;;5532373;26;20210;-87
2024/04/16 08:23:38;;;;;;;10.20;8.63;;;7.10;86.80;;;;;;5532226;26;20218;-86
2024/04/16 08:26:06;;;;;;;11.43;7.30;;;7.10;86.90;;;;;;5531590;26;20694;-85
2024/04/16 08:28:32;;;;;;;9.10;7.27;;;7.00;86.50;;;;;;5526865;26;20248;-85
2024/04/16 08:31:02;;;;;;;7.60;6.93;;;7.20;86.90;;;;;;5527023;26;20686;-84
2024/04/16 08:33:28;;;;;;;9.70;7.87;;;7.30;86.40;;;;;;5526711;26;20222;-85
2024/04/16 08:35:54;;;;;;;10.57;8.07;;;7.50;86.50;;;;;;5526819;26;20206;-86
2024/04/16 08:38:20;;;;;;;9.57;8.10;;;7.60;86.40;;;;;;5526877;26;20290;-85
2024/04/16 08:40:46;;;;;;;9.90;8.97;;;7.50;85.70;;;;;;5526808;26;20226;-85
2024/04/16 08:43:12;;;;;;;13.43;9.00;;;7.50;85.90;;;;;;5526546;26;20694;-85
2024/04/16 08:45:38;;;;;;;9.00;8.20;;;7.60;85.90;;;;;;5526711;26;20748;-85
2024/04/16 08:48:05;;;;;;;9.27;8.33;;;7.70;86.10;;;;;;5526402;26;20249;-86
2024/04/16 08:50:33;;;;;;;9.67;8.47;;;7.80;85.80;;;;;;5526408;26;20745;-85
2024/04/16 08:52:59;;;;;;;9.47;8.47;;;7.90;85.70;;;;;;5493768;26;20271;-85
2024/04/16 08:55:26;;;;;;;10.80;9.07;;;7.90;85.30;;;;;;5493799;26;20256;-85
2024/04/16 08:57:52;;;;;;;10.50;9.40;;;7.70;85.00;;;;;;5526644;26;20214;-85
2024/04/16 09:00:18;;;;;;;10.50;8.33;;;7.80;85.00;;;;;;5526385;26;20588;-85
2024/04/16 09:02:45;;;;;;;10.43;9.20;;;7.80;85.10;;;;;;5526372;26;20741;-86
2024/04/16 09:05:11;;;;;;;13.70;9.90;;;7.80;85.10;;;;;;5493768;26;20214;-86
2024/04/16 09:07:38;;;;;;;10.43;8.07;;;8.00;85.70;;;;;;5493663;26;20249;-86
2024/04/16 09:10:19;;;;;;;10.67;9.40;;;8.10;85.30;;;;;;5493685;26;20222;-88
2024/04/16 09:12:46;;;;;;;10.27;9.23;;;8.20;84.80;;;;;;5495504;26;20225;-85
2024/04/16 09:15:20;;;;;;;10.03;9.20;;;8.30;84.70;;;;;;5529513;26;20214;-84
2024/04/16 09:17:53;;;;;;;9.80;8.97;;;8.20;84.90;;;;;;5529769;26;20661;-85
2024/04/16 09:20:21;;;;;;;9.60;8.60;;;8.20;84.80;;;;;;5529905;26;20740;-84
2024/04/16 09:22:48;;;;;;;9.90;9.10;;;8.40;85.30;;;;;;5497188;26;20294;-85
2024/04/16 09:25:14;;;;;;;10.07;9.30;;;8.30;83.70;;;;;;5497156;26;20222;-85
2024/04/16 09:27:40;;;;;;;9.57;8.77;;;8.30;84.20;;;;;;5530006;26;20210;-85
2024/04/16 09:30:10;;;;;;;11.97;9.17;;;8.30;83.60;;;;;;5497095;26;20323;-86
2024/04/16 09:32:39;;;;;;;9.67;8.43;;;8.40;84.60;;;;;;5532375;26;20227;-88
2024/04/16 09:35:05;;;;;;;9.70;8.80;;;8.50;83.70;;;;;;5498275;26;20244;-86
2024/04/16 09:37:32;;;;;;;14.97;9.30;;;8.50;83.60;;;;;;5533180;26;20219;-88
2024/04/16 09:39:59;;;;;;;10.00;9.10;;;8.70;82.70;;;;;;5500988;26;20219;-87
2024/04/16 09:42:26;;;;;;;10.37;9.47;;;8.80;83.40;;;;;;5531777;26;20210;-87
2024/04/16 09:44:52;;;;;;;11.27;10.10;;;8.90;83.40;;;;;;5533064;26;20223;-87
2024/04/16 09:47:18;;;;;;;11.63;10.53;;;8.90;83.00;;;;;;5532362;26;20214;-87
2024/04/16 09:49:44;;;;;;;19.00;17.43;;;8.80;82.90;;;;;;5532230;26;20210;-88
2024/04/16 09:52:14;;;;;;;17.00;15.80;;;8.80;82.60;;;;;;5531674;26;20255;-87
2024/04/16 09:54:44;;;;;;;18.10;16.70;;;8.90;83.00;;;;;;5532521;26;20226;-87
2024/04/16 09:57:10;;;;;;;16.97;15.70;;;9.30;83.30;;;;;;5499819;26;20640;-88
2024/04/16 09:59:41;;;;;;;20.60;18.77;;;9.70;82.20;;;;;;5532950;26;20694;-87
2024/04/16 10:02:09;;;;;;;19.77;18.00;;;9.30;81.50;;;;;;5531191;26;20262;-90
2024/04/16 10:04:35;;;;;;;20.00;18.13;;;9.30;80.80;;;;;;5496817;26;20230;-90
2024/04/16 10:07:01;;;;;;;21.30;19.80;;;9.60;81.60;;;;;;5496727;26;20226;-90
2024/04/16 10:09:27;;;;;;;21.53;19.47;;;9.70;80.40;;;;;;5496575;26;20297;-90
2024/04/16 10:11:53;;;;;;;22.63;20.53;;;9.50;79.60;;;;;;5496694;26;20226;-90
2024/04/16 10:14:18;;;;;;;22.57;20.60;;;9.40;80.40;;;;;;5529463;26;20265;-91
2024/04/16 10:16:47;;;;;;;21.43;19.63;;;9.30;80.60;;;;;;5529207;26;20257;-90
2024/04/16 10:19:15;;;;;;;21.07;19.50;;;9.00;80.90;;;;;;5529220;26;20206;-90
2024/04/16 10:21:45;;;;;;;21.13;19.43;;;8.90;81.10;;;;;;5496400;26;20293;-90
2024/04/16 10:24:11;;;;;;;19.47;17.87;;;8.60;82.00;;;;;;5495688;26;20721;-90
2024/04/16 10:26:39;;;;;;;20.37;18.67;;;9.00;82.30;;;;;;5528863;26;20226;-90
2024/04/16 10:29:15;;;;;;;19.20;17.90;;;9.20;82.10;;;;;;5528989;26;20214;-89
2024/04/16 10:31:43;;;;;;;20.43;18.87;;;9.40;82.00;;;;;;5496706;26;20214;-90
2024/04/16 10:34:21;;;;;;;18.27;16.77;;;9.50;82.00;;;;;;5496585;26;20230;-91
2024/04/16 10:36:47;;;;;;;21.73;20.13;;;9.70;81.50;;;;;;5528852;26;20179;-90
2024/04/16 10:39:14;;;;;;;21.27;19.77;;;9.80;80.80;;;;;;5528817;26;20583;-90
2024/04/16 10:41:54;;;;;;;21.83;20.23;;;9.90;79.90;;;;;;5496207;26;20226;-90
2024/04/16 10:44:21;;;;;;;21.33;19.93;;;9.80;79.90;;;;;;5496254;26;20229;-89
2024/04/16 10:46:49;;;;;;;20.23;18.80;;;9.90;79.90;;;;;;5496219;26;20222;-90
2024/04/16 10:49:15;;;;;;;21.40;19.63;;;10.20;80.20;;;;;;5528592;26;20218;-91
2024/04/16 10:51:41;;;;;;;21.13;19.53;;;10.40;79.30;;;;;;5528596;26;20261;-90
2024/04/16 10:54:09;;;;;;;21.73;20.10;;;10.80;78.60;;;;;;5528564;26;20714;-91
2024/04/16 10:56:39;;;;;;;15.03;13.70;;;11.20;77.80;;;;;;5528674;26;20214;-90
2024/04/16 10:59:12;;;;;;;15.57;14.30;;;11.20;76.90;;;;;;5528455;26;20244;-91
2024/04/16 11:01:46;;;;;;;15.50;14.40;;;11.10;76.50;;;;;;5495955;26;20218;-90
2024/04/16 11:04:13;;;;;;;15.23;14.03;;;10.70;76.40;;;;;;5528558;26;20233;-91
2024/04/16 11:06:42;;;;;;;16.53;15.03;;;11.00;77.70;;;;;;5528410;26;20261;-90
2024/04/16 11:09:08;;;;;;;14.77;13.53;;;10.30;76.90;;;;;;5528640;26;20253;-90
2024/04/16 11:11:34;;;;;;;13.40;12.50;;;9.70;80.30;;;;;;5528503;26;20606;-90
2024/04/16 11:14:04;;;;;;;11.93;11.03;;;9.50;82.00;;;;;;5528528;26;20270;-91
2024/04/16 11:16:30;;;;;;;12.13;11.23;;;9.70;82.90;;;;;;5530758;26;20210;-91
2024/04/16 11:18:56;;;;;;;13.33;12.13;;;9.80;82.80;;;;;;5495795;26;20749;-90
2024/04/16 11:21:25;;;;;;;12.10;11.20;;;9.30;81.30;;;;;;5495538;26;20234;-89
2024/04/16 11:23:51;;;;;;;11.53;10.73;;;8.90;81.20;;;;;;5495613;26;20600;-91
2024/04/16 11:26:16;;;;;;;11.23;10.43;;;9.10;81.30;;;;;;5495529;26;20214;-88
2024/04/16 11:28:42;;;;;;;9.83;9.13;;;9.30;82.10;;;;;;5528013;26;20210;-86
2024/04/16 11:31:07;;;;;;;10.80;10.00;;;9.60;83.30;;;;;;5528233;26;20562;-86
2024/04/16 11:33:34;;;;;;;9.53;8.63;;;9.40;82.40;;;;;;5495649;26;20230;-85
2024/04/16 11:36:03;;;;;;;10.37;9.67;;;9.70;83.40;;;;;;5526479;26;20214;-85
2024/04/16 11:38:29;;;;;;;9.93;9.23;;;9.70;82.20;;;;;;5495206;26;20563;-86
2024/04/16 11:40:56;;;;;;;10.53;9.83;;;9.80;81.50;;;;;;5495484;26;20249;-85
2024/04/16 11:43:22;;;;;;;9.50;8.97;;;9.80;82.10;;;;;;5495117;26;20321;-86
2024/04/16 11:45:48;;;;;;;11.47;10.60;;;10.10;82.50;;;;;;5527785;26;20685;-85
2024/04/16 11:48:13;;;;;;;11.07;10.10;;;10.10;81.70;;;;;;5527999;26;20210;-85
2024/04/16 11:50:39;;;;;;;12.27;11.27;;;10.30;82.00;;;;;;5527760;26;20248;-86
2024/04/16 11:53:04;;;;;;;12.07;11.00;;;10.70;82.00;;;;;;5527783;26;20238;-86
2024/04/16 11:55:30;;;;;;;12.00;11.17;;;10.80;80.90;;;;;;5495041;26;20226;-86
2024/04/16 11:57:55;;;;;;;12.53;11.63;;;10.40;80.00;;;;;;5528144;26;20271;-86
2024/04/16 12:00:22;;;;;;;12.70;11.80;;;10.50;80.40;;;;;;5528094;26;20318;-86
2024/04/16 12:02:47;;;;;;;13.17;12.23;;;10.50;79.70;;;;;;5527874;26;20244;-86
2024/04/16 12:05:13;;;;;;;12.67;11.77;;;10.70;79.80;;;;;;5495356;26;20258;-86
2024/04/16 12:07:38;;;;;;;13.13;12.30;;;10.80;79.70;;;;;;5495365;26;20326;-85
2024/04/16 12:10:04;;;;;;;12.80;12.00;;;10.80;79.10;;;;;;5528301;26;20595;-86
2024/04/16 12:12:29;;;;;;;12.40;11.57;;;10.90;79.80;;;;;;5527831;26;20213;-86
2024/04/16 12:14:55;;;;;;;12.30;11.50;;;10.70;80.80;;;;;;5527893;26;20706;-87
2024/04/16 12:17:21;;;;;;;12.07;11.17;;;10.70;81.40;;;;;;5527792;26;20377;-86
2024/04/16 12:19:47;;;;;;;12.30;11.23;;;10.60;82.00;;;;;;5527479;26;20210;-86
2024/04/16 12:22:12;;;;;;;11.37;10.67;;;10.50;82.40;;;;;;5527501;26;20253;-85
2024/04/16 12:24:38;;;;;;;11.00;10.20;;;10.40;82.60;;;;;;5527476;26;20257;-85
2024/04/16 12:27:03;;;;;;;10.97;10.27;;;10.30;83.10;;;;;;5527609;26;20222;-86
2024/04/16 12:29:29;;;;;;;10.47;9.70;;;10.20;83.20;;;;;;5527504;26;20724;-86
2024/04/16 12:31:54;;;;;;;10.50;9.80;;;10.20;84.00;;;;;;5527631;26;20321;-85
2024/04/16 12:34:20;;;;;;;10.07;9.37;;;10.30;84.00;;;;;;5527323;26;20222;-86
2024/04/16 12:36:45;;;;;;;9.30;8.60;;;10.30;84.50;;;;;;5527227;26;20241;-85
2024/04/16 12:39:11;;;;;;;11.67;10.90;;;10.50;84.80;;;;;;5527520;26;20214;-86
2024/04/16 12:41:37;;;;;;;12.90;12.10;;;10.40;84.20;;;;;;5494858;26;20210;-85
2024/04/16 12:44:03;;;;;;;13.30;12.50;;;10.30;83.90;;;;;;5527166;26;20222;-86
2024/04/16 12:46:28;;;;;;;13.20;12.40;;;10.20;83.80;;;;;;5527733;25;20318;-85